createdAt,value
2022-07-30T00:01:34.398Z,24.38
2022-07-30T00:04:03.393Z,24.31
2022-07-30T00:06:30.332Z,24.25
2022-07-30T00:08:57.159Z,24.38
2022-07-30T00:11:27.651Z,24.33
2022-07-30T00:13:55.397Z,24.33
2022-07-30T00:16:22.457Z,24.24
2022-07-30T00:18:49.359Z,24.33
2022-07-30T00:21:36.363Z,24.19
2022-07-30T00:24:04.663Z,24.19
2022-07-30T00:26:31.784Z,24.19
2022-07-30T00:28:58.469Z,24.16
2022-07-30T00:31:25.247Z,24.04
2022-07-30T00:33:52.110Z,24.00
2022-07-30T00:36:18.884Z,23.87
2022-07-30T00:38:45.943Z,23.90
2022-07-30T00:41:12.981Z,23.90
2022-07-30T00:43:44.311Z,23.95
2022-07-30T00:46:11.086Z,23.94
2022-07-30T00:48:38.155Z,24.12
2022-07-30T00:51:05.115Z,24.02
2022-07-30T00:53:32.257Z,24.00
2022-07-30T00:55:59.000Z,24.05
2022-07-30T00:58:26.251Z,23.97
2022-07-30T01:00:55.627Z,24.03
2022-07-30T01:03:22.483Z,24.07
2022-07-30T01:05:50.105Z,24.00
2022-07-30T01:08:16.936Z,23.86
2022-07-30T01:10:44.668Z,23.89
2022-07-30T01:13:11.721Z,23.91
2022-07-30T01:15:38.678Z,23.95
2022-07-30T01:18:10.245Z,23.95
2022-07-30T01:20:50.384Z,23.97
2022-07-30T01:23:38.400Z,23.78
2022-07-30T01:26:16.639Z,23.78
2022-07-30T01:28:48.646Z,23.84
2022-07-30T01:31:16.925Z,23.64
2022-07-30T01:33:47.528Z,23.73
2022-07-30T01:36:16.443Z,23.82
2022-07-30T01:38:45.127Z,23.79
2022-07-30T01:41:15.240Z,23.69
2022-07-30T01:43:45.349Z,23.71
2022-07-30T01:46:14.861Z,23.71
2022-07-30T01:48:45.447Z,23.43
2022-07-30T01:51:13.725Z,23.45
2022-07-30T01:53:46.014Z,23.47
2022-07-30T01:56:16.785Z,23.64
2022-07-30T01:58:47.655Z,23.75
2022-07-30T02:01:20.152Z,23.67
2022-07-30T02:03:47.375Z,23.52
2022-07-30T02:06:20.884Z,23.58
2022-07-30T02:08:54.666Z,23.57
2022-07-30T02:11:42.465Z,23.50
2022-07-30T02:14:21.832Z,23.44
2022-07-30T02:16:54.242Z,23.53
2022-07-30T02:19:24.869Z,23.57
2022-07-30T02:22:08.612Z,23.52
2022-07-30T02:24:38.744Z,23.50
2022-07-30T02:27:35.836Z,23.56
2022-07-30T02:30:06.041Z,23.55
2022-07-30T02:32:38.680Z,23.54
2022-07-30T02:35:15.674Z,23.35
2022-07-30T02:37:44.574Z,23.49
2022-07-30T02:40:18.009Z,23.35
2022-07-30T02:42:49.176Z,23.35
2022-07-30T02:45:20.938Z,23.34
2022-07-30T02:47:51.866Z,23.39
2022-07-30T02:50:20.242Z,23.35
2022-07-30T02:52:49.697Z,23.32
2022-07-30T02:55:18.692Z,23.30
2022-07-30T02:57:47.252Z,23.21
2022-07-30T03:00:14.571Z,23.29
2022-07-30T03:02:43.787Z,23.31
2022-07-30T03:05:13.620Z,23.23
2022-07-30T03:07:41.179Z,23.25
2022-07-30T03:10:08.607Z,23.20
2022-07-30T03:12:37.321Z,23.29
2022-07-30T03:15:04.466Z,23.13
2022-07-30T03:17:37.434Z,22.99
2022-07-30T03:20:08.511Z,22.88
2022-07-30T03:22:41.573Z,22.89
2022-07-30T03:25:09.821Z,23.00
2022-07-30T03:27:39.169Z,23.02
2022-07-30T03:30:07.339Z,23.05
2022-07-30T03:32:36.030Z,22.96
2022-07-30T03:35:06.643Z,22.92
2022-07-30T03:37:38.079Z,22.94
2022-07-30T03:40:07.445Z,22.88
2022-07-30T03:42:35.500Z,22.88
2022-07-30T03:45:06.459Z,22.91
2022-07-30T03:47:37.540Z,22.87
2022-07-30T03:50:05.401Z,22.86
2022-07-30T03:52:37.302Z,22.67
2022-07-30T03:55:10.798Z,22.54
2022-07-30T03:57:49.421Z,22.40
2022-07-30T04:00:18.451Z,22.38
2022-07-30T04:02:51.623Z,22.36
2022-07-30T04:05:18.326Z,22.20
2022-07-30T04:07:47.136Z,22.27
2022-07-30T04:10:16.666Z,22.29
2022-07-30T04:12:58.526Z,22.29
2022-07-30T04:16:37.389Z,22.33
2022-07-30T04:18:15.573Z,22.20
2022-07-30T04:20:44.729Z,22.30
2022-07-30T04:23:12.431Z,22.12
2022-07-30T04:25:43.578Z,22.17
2022-07-30T04:28:11.862Z,22.32
2022-07-30T04:30:39.159Z,22.39
2022-07-30T04:33:06.359Z,22.45
2022-07-30T04:35:52.344Z,22.53
2022-07-30T04:38:34.469Z,22.50
2022-07-30T04:41:01.564Z,22.50
2022-07-30T04:43:33.385Z,22.50
2022-07-30T04:46:00.152Z,22.50
2022-07-30T04:48:28.352Z,22.48
2022-07-30T04:51:12.756Z,22.41
2022-07-30T04:53:42.582Z,22.37
2022-07-30T04:56:13.793Z,22.47
2022-07-30T04:58:41.486Z,22.69
2022-07-30T05:01:10.491Z,22.61
2022-07-30T05:03:40.219Z,22.57
2022-07-30T05:06:08.870Z,22.47
2022-07-30T05:08:39.748Z,22.63
2022-07-30T05:11:13.566Z,22.59
2022-07-30T05:13:42.669Z,22.57
2022-07-30T05:16:14.335Z,22.68
2022-07-30T05:18:41.341Z,22.78
2022-07-30T05:21:08.372Z,22.86
2022-07-30T05:23:50.062Z,22.75
2022-07-30T05:26:41.609Z,22.77
2022-07-30T05:29:19.410Z,22.80
2022-07-30T05:31:51.264Z,22.87
2022-07-30T05:34:19.303Z,22.84
2022-07-30T05:36:46.304Z,22.90
2022-07-30T05:39:16.794Z,22.96
2022-07-30T05:41:52.889Z,22.87
2022-07-30T05:44:28.206Z,22.83
2022-07-30T05:46:55.258Z,23.04
2022-07-30T05:49:23.172Z,22.93
2022-07-30T05:51:50.625Z,22.97
2022-07-30T05:54:18.079Z,23.02
2022-07-30T05:57:03.738Z,23.07
2022-07-30T05:59:37.415Z,23.12
2022-07-30T06:02:12.772Z,23.35
2022-07-30T06:04:57.838Z,23.46
2022-07-30T06:07:25.107Z,23.46
2022-07-30T06:09:54.140Z,23.52
2022-07-30T06:12:20.999Z,23.73
2022-07-30T06:14:48.338Z,23.83
2022-07-30T06:17:22.265Z,23.66
2022-07-30T06:20:13.214Z,23.84
2022-07-30T06:22:57.751Z,23.90
2022-07-30T06:25:33.608Z,24.05
2022-07-30T06:28:15.420Z,24.14
2022-07-30T06:30:48.743Z,24.23
2022-07-30T06:33:16.422Z,24.24
2022-07-30T06:35:43.180Z,24.23
2022-07-30T06:38:12.434Z,24.42
2022-07-30T06:40:52.282Z,24.40
2022-07-30T06:43:34.399Z,24.50
2022-07-30T06:46:21.092Z,24.54
2022-07-30T06:48:50.347Z,24.78
2022-07-30T06:51:17.163Z,24.89
2022-07-30T06:53:45.756Z,24.61
2022-07-30T06:56:13.710Z,24.61
2022-07-30T06:58:47.944Z,24.70
2022-07-30T07:01:29.846Z,24.61
2022-07-30T07:03:57.650Z,24.69
2022-07-30T07:06:24.545Z,24.56
2022-07-30T07:08:51.265Z,24.73
2022-07-30T07:11:24.630Z,24.84
2022-07-30T07:13:54.670Z,25.23
2022-07-30T07:16:28.977Z,25.18
2022-07-30T07:18:56.717Z,25.29
2022-07-30T07:21:23.664Z,25.33
2022-07-30T07:23:52.845Z,25.46
2022-07-30T07:26:39.978Z,25.77
2022-07-30T07:29:08.692Z,25.71
2022-07-30T07:32:06.111Z,25.65
2022-07-30T07:34:22.915Z,25.73
2022-07-30T07:36:49.817Z,25.76
2022-07-30T07:39:16.838Z,26.04
2022-07-30T07:41:49.040Z,25.98
2022-07-30T07:44:19.701Z,25.90
2022-07-30T07:46:46.493Z,25.99
2022-07-30T07:49:13.390Z,26.11
2022-07-30T07:51:47.323Z,26.13
2022-07-30T07:54:22.520Z,25.83
2022-07-30T07:56:56.799Z,25.64
2022-07-30T07:59:40.686Z,25.38
2022-07-30T08:02:19.677Z,25.56
2022-07-30T08:05:00.522Z,25.57
2022-07-30T08:07:49.524Z,25.47
2022-07-30T08:10:36.272Z,25.53
2022-07-30T08:13:52.165Z,25.81
2022-07-30T08:16:27.100Z,25.94
2022-07-30T08:19:12.649Z,25.73
2022-07-30T08:21:43.896Z,26.09
2022-07-30T08:24:10.584Z,26.40
2022-07-30T08:26:37.374Z,26.47
2022-07-30T08:29:04.755Z,26.70
2022-07-30T08:31:33.297Z,26.46
2022-07-30T08:34:00.131Z,26.70
2022-07-30T08:36:27.945Z,26.34
2022-07-30T08:38:54.686Z,26.31
2022-07-30T08:41:22.480Z,26.46
2022-07-30T08:43:51.095Z,26.36
2022-07-30T08:46:24.874Z,26.45
2022-07-30T08:48:58.367Z,26.30
2022-07-30T08:51:25.424Z,25.91
2022-07-30T08:54:11.125Z,25.91
2022-07-30T08:56:39.314Z,26.10
2022-07-30T08:59:07.759Z,26.18
2022-07-30T09:01:34.477Z,26.18
2022-07-30T09:04:01.523Z,26.16
2022-07-30T09:06:29.401Z,26.31
2022-07-30T09:08:57.657Z,26.39
2022-07-30T09:11:25.390Z,26.51
2022-07-30T09:13:52.931Z,26.71
2022-07-30T09:16:24.248Z,26.80
2022-07-30T09:18:54.535Z,26.73
2022-07-30T09:21:24.508Z,26.63
2022-07-30T09:24:12.711Z,26.79
2022-07-30T09:27:11.500Z,26.65
2022-07-30T09:29:59.751Z,26.71
2022-07-30T09:32:53.316Z,27.02
2022-07-30T09:35:41.825Z,27.28
2022-07-30T09:38:12.406Z,26.93
2022-07-30T09:41:00.182Z,26.68
2022-07-30T09:43:51.440Z,26.79
2022-07-30T09:46:47.081Z,26.74
2022-07-30T09:49:31.692Z,26.91
2022-07-30T09:51:59.035Z,27.05
2022-07-30T09:54:51.103Z,27.09
2022-07-30T09:57:25.972Z,26.70
2022-07-30T10:00:00.030Z,26.77
2022-07-30T10:02:33.912Z,26.64
2022-07-30T10:05:15.434Z,26.62
2022-07-30T10:07:54.564Z,26.90
2022-07-30T10:10:25.800Z,27.14
2022-07-30T10:12:59.480Z,27.02
2022-07-30T10:15:32.456Z,26.72
2022-07-30T10:18:01.181Z,26.50
2022-07-30T10:20:48.117Z,26.44
2022-07-30T10:23:29.864Z,26.48
2022-07-30T10:26:18.364Z,26.87
2022-07-30T10:28:46.148Z,27.15
2022-07-30T10:31:46.904Z,27.32
2022-07-30T10:34:02.593Z,27.08
2022-07-30T10:36:30.574Z,26.83
2022-07-30T10:38:57.597Z,26.70
2022-07-30T10:41:42.783Z,26.51
2022-07-30T10:44:45.861Z,26.41
2022-07-30T10:47:16.332Z,26.67
2022-07-30T10:50:10.561Z,26.85
2022-07-30T10:53:02.900Z,27.01
2022-07-30T10:55:38.810Z,27.01
2022-07-30T10:58:08.012Z,27.21
2022-07-30T11:00:55.977Z,27.33
2022-07-30T11:03:41.535Z,27.37
2022-07-30T11:06:15.531Z,27.38
2022-07-30T11:08:45.255Z,27.37
2022-07-30T11:12:01.776Z,27.37
2022-07-30T11:14:08.164Z,27.21
2022-07-30T11:16:34.771Z,27.29
2022-07-30T11:19:54.939Z,27.23
2022-07-30T11:22:25.117Z,27.26
2022-07-30T11:24:52.700Z,27.47
2022-07-30T11:27:45.849Z,27.64
2022-07-30T11:30:23.402Z,27.65
2022-07-30T11:33:18.660Z,27.53
2022-07-30T11:36:05.386Z,27.56
2022-07-30T11:38:52.515Z,27.69
2022-07-30T11:41:19.580Z,27.61
2022-07-30T11:43:46.312Z,27.52
2022-07-30T11:46:29.034Z,27.58
2022-07-30T11:49:04.074Z,27.67
2022-07-30T11:51:45.319Z,27.73
2022-07-30T11:54:12.718Z,27.92
2022-07-30T11:56:54.099Z,28.18
2022-07-30T11:59:21.131Z,28.08
2022-07-30T12:02:00.426Z,28.00
2022-07-30T12:04:27.801Z,27.80
2022-07-30T12:06:54.676Z,27.83
2022-07-30T12:09:24.375Z,27.76
2022-07-30T12:11:55.491Z,27.74
2022-07-30T12:14:23.150Z,27.84
2022-07-30T12:16:54.177Z,27.73
2022-07-30T12:19:21.144Z,28.02
2022-07-30T12:21:52.593Z,28.05
2022-07-30T12:24:26.319Z,28.06
2022-07-30T12:27:03.561Z,28.01
2022-07-30T12:29:32.316Z,27.95
2022-07-30T12:31:59.261Z,27.82
2022-07-30T12:34:26.811Z,27.88
2022-07-30T12:36:54.437Z,27.92
2022-07-30T12:39:24.165Z,27.89
2022-07-30T12:41:53.150Z,27.85
2022-07-30T12:44:40.300Z,28.02
2022-07-30T12:47:28.002Z,28.19
2022-07-30T12:49:57.153Z,28.08
2022-07-30T12:52:30.926Z,27.96
2022-07-30T12:55:10.333Z,27.92
2022-07-30T12:58:08.746Z,27.90
2022-07-30T13:00:53.099Z,27.94
2022-07-30T13:03:28.609Z,28.13
2022-07-30T13:05:57.027Z,28.20
2022-07-30T13:09:03.043Z,28.29
2022-07-30T13:11:41.747Z,28.56
2022-07-30T13:14:16.946Z,28.72
2022-07-30T13:16:43.889Z,28.69
2022-07-30T13:19:11.801Z,28.66
2022-07-30T13:21:39.950Z,28.72
2022-07-30T13:24:18.153Z,28.67
2022-07-30T13:26:45.700Z,28.47
2022-07-30T13:29:13.532Z,28.87
2022-07-30T13:31:43.039Z,28.94
2022-07-30T13:34:11.901Z,29.03
2022-07-30T13:36:38.971Z,29.14
2022-07-30T13:39:05.741Z,28.98
2022-07-30T13:41:33.266Z,29.27
2022-07-30T13:44:00.054Z,29.34
2022-07-30T13:46:26.912Z,29.60
2022-07-30T13:48:53.983Z,29.39
2022-07-30T13:51:20.916Z,29.50
2022-07-30T13:53:47.774Z,29.49
2022-07-30T13:56:14.441Z,29.59
2022-07-30T13:58:42.891Z,29.73
2022-07-30T14:01:17.368Z,29.82
2022-07-30T14:03:50.188Z,29.96
2022-07-30T14:06:18.640Z,29.87
2022-07-30T14:08:45.734Z,29.51
2022-07-30T14:11:12.473Z,29.37
2022-07-30T14:13:39.193Z,29.66
2022-07-30T14:16:22.595Z,29.77
2022-07-30T14:18:53.147Z,30.20
2022-07-30T14:21:19.861Z,30.01
2022-07-30T14:23:46.549Z,29.76
2022-07-30T14:26:13.986Z,30.01
2022-07-30T14:28:40.806Z,30.04
2022-07-30T14:31:07.618Z,29.88
2022-07-30T14:33:41.367Z,30.30
2022-07-30T14:36:08.131Z,30.54
2022-07-30T14:38:34.863Z,30.83
2022-07-30T14:41:01.779Z,31.21
2022-07-30T14:43:28.491Z,31.45
2022-07-30T14:45:55.210Z,31.67
2022-07-30T14:48:21.827Z,31.54
2022-07-30T14:51:13.045Z,30.99
2022-07-30T14:53:35.744Z,31.39
2022-07-30T14:56:02.454Z,32.48
2022-07-30T14:58:29.371Z,33.98
2022-07-30T15:00:56.038Z,34.02
2022-07-30T15:03:23.191Z,32.78
2022-07-30T15:05:53.282Z,34.89
2022-07-30T15:08:20.938Z,36.79
2022-07-30T15:10:47.727Z,38.65
2022-07-30T15:13:14.808Z,39.76
2022-07-30T15:15:45.209Z,38.68
2022-07-30T15:18:13.250Z,35.93
2022-07-30T15:20:39.966Z,37.38
2022-07-30T15:23:10.423Z,37.50
2022-07-30T15:25:40.789Z,39.07
2022-07-30T15:28:07.588Z,40.05
2022-07-30T15:30:34.296Z,40.89
2022-07-30T15:33:01.111Z,41.08
2022-07-30T15:35:29.110Z,40.25
2022-07-30T15:37:55.897Z,39.84
2022-07-30T15:40:22.729Z,38.69
2022-07-30T15:42:49.425Z,40.06
2022-07-30T15:45:18.292Z,38.92
2022-07-30T15:47:45.260Z,36.08
2022-07-30T15:50:12.238Z,34.60
2022-07-30T15:52:39.389Z,33.86
2022-07-30T15:55:06.741Z,33.15
2022-07-30T15:57:33.536Z,32.76
2022-07-30T16:00:00.435Z,32.27
2022-07-30T16:02:27.394Z,31.57
2022-07-30T16:04:54.377Z,31.65
2022-07-30T16:07:21.157Z,31.46
2022-07-30T16:09:47.898Z,31.35
2022-07-30T16:12:14.609Z,31.33
2022-07-30T16:14:41.307Z,31.07
2022-07-30T16:17:13.624Z,30.97
2022-07-30T16:19:41.317Z,30.77
2022-07-30T16:22:15.786Z,30.51
2022-07-30T16:24:49.004Z,30.38
2022-07-30T16:27:17.148Z,30.32
2022-07-30T16:29:43.796Z,30.17
2022-07-30T16:32:10.759Z,30.05
2022-07-30T16:34:37.528Z,30.11
2022-07-30T16:37:04.575Z,30.01
2022-07-30T16:39:31.752Z,30.01
2022-07-30T16:41:58.468Z,30.00
2022-07-30T16:44:27.058Z,30.02
2022-07-30T16:46:53.777Z,29.73
2022-07-30T16:49:20.590Z,29.74
2022-07-30T16:51:47.433Z,29.60
2022-07-30T16:54:14.371Z,29.56
2022-07-30T16:56:41.054Z,29.57
2022-07-30T16:59:13.220Z,29.61
2022-07-30T17:01:40.326Z,29.47
2022-07-30T17:04:07.059Z,29.57
2022-07-30T17:06:35.537Z,29.49
2022-07-30T17:09:02.352Z,29.45
2022-07-30T17:11:47.160Z,29.35
2022-07-30T17:14:16.009Z,29.33
2022-07-30T17:16:42.718Z,29.30
2022-07-30T17:19:09.881Z,29.09
2022-07-30T17:21:38.076Z,29.07
2022-07-30T17:24:10.963Z,29.07
2022-07-30T17:26:40.388Z,29.03
2022-07-30T17:29:10.764Z,29.11
2022-07-30T17:31:43.181Z,29.14
2022-07-30T17:34:13.549Z,29.11
2022-07-30T17:36:44.381Z,29.06
2022-07-30T17:40:19.600Z,29.02
2022-07-30T17:42:08.913Z,28.98
2022-07-30T17:44:36.006Z,29.00
2022-07-30T17:47:03.259Z,28.96
2022-07-30T17:49:30.263Z,28.96
2022-07-30T17:51:57.225Z,28.96
2022-07-30T17:54:24.935Z,28.86
2022-07-30T17:56:52.814Z,28.91
2022-07-30T17:59:19.515Z,28.75
2022-07-30T18:01:46.269Z,28.63
2022-07-30T18:04:13.055Z,28.62
2022-07-30T18:06:40.157Z,28.62
2022-07-30T18:09:06.865Z,28.67
2022-07-30T18:11:33.570Z,28.58
2022-07-30T18:14:00.365Z,28.55
2022-07-30T18:16:27.110Z,28.41
2022-07-30T18:18:53.949Z,28.45
2022-07-30T18:21:20.803Z,28.31
2022-07-30T18:23:47.563Z,28.29
2022-07-30T18:26:15.348Z,28.27
2022-07-30T18:28:42.306Z,28.20
2022-07-30T18:31:09.214Z,28.47
2022-07-30T18:33:36.156Z,28.30
2022-07-30T18:36:03.011Z,28.24
2022-07-30T18:38:29.808Z,28.12
2022-07-30T18:41:00.535Z,28.09
2022-07-30T18:43:28.277Z,28.06
2022-07-30T18:45:55.879Z,28.07
2022-07-30T18:48:23.404Z,28.03
2022-07-30T18:50:50.852Z,27.95
2022-07-30T18:53:17.653Z,28.00
2022-07-30T18:55:44.687Z,28.03
2022-07-30T18:58:11.990Z,28.00
2022-07-30T19:00:42.625Z,27.85
2022-07-30T19:03:16.296Z,27.77
2022-07-30T19:05:45.571Z,27.78
2022-07-30T19:08:12.333Z,27.79
2022-07-30T19:10:39.927Z,27.71
2022-07-30T19:13:06.725Z,27.66
2022-07-30T19:15:33.538Z,27.74
2022-07-30T19:18:00.207Z,27.72
2022-07-30T19:20:27.633Z,27.63
2022-07-30T19:23:06.729Z,27.64
2022-07-30T19:25:34.346Z,27.75
2022-07-30T19:28:03.765Z,27.62
2022-07-30T19:30:31.728Z,27.65
2022-07-30T19:33:14.718Z,27.53
2022-07-30T19:35:43.327Z,27.53
2022-07-30T19:38:11.960Z,27.70
2022-07-30T19:40:48.227Z,27.68
2022-07-30T19:43:16.425Z,27.56
2022-07-30T19:45:47.308Z,27.50
2022-07-30T19:48:28.386Z,27.41
2022-07-30T19:50:55.902Z,27.44
2022-07-30T19:53:22.571Z,27.46
2022-07-30T19:55:50.911Z,27.43
2022-07-30T19:58:17.864Z,27.44
2022-07-30T20:00:49.408Z,27.40
2022-07-30T20:03:19.047Z,27.48
2022-07-30T20:05:57.222Z,27.48
2022-07-30T20:08:27.391Z,27.36
2022-07-30T20:10:57.700Z,27.39
2022-07-30T20:13:45.001Z,27.44
2022-07-30T20:16:17.076Z,27.54
2022-07-30T20:18:47.286Z,27.33
2022-07-30T20:21:16.349Z,27.28
2022-07-30T20:23:44.624Z,27.17
2022-07-30T20:26:14.271Z,27.38
2022-07-30T20:28:52.405Z,27.19
2022-07-30T20:31:20.117Z,27.11
2022-07-30T20:33:50.182Z,27.08
2022-07-30T20:36:18.533Z,27.02
2022-07-30T20:38:47.017Z,26.89
2022-07-30T20:41:14.642Z,26.94
2022-07-30T20:43:52.100Z,26.86
2022-07-30T20:46:23.265Z,26.80
2022-07-30T20:48:52.141Z,26.85
2022-07-30T20:51:19.469Z,26.91
2022-07-30T20:53:47.049Z,26.80
2022-07-30T20:56:16.153Z,26.84
2022-07-30T20:58:47.454Z,26.78
2022-07-30T21:01:17.623Z,26.73
2022-07-30T21:03:47.807Z,26.76
2022-07-30T21:06:15.131Z,26.71
2022-07-30T21:08:41.886Z,26.73
2022-07-30T21:11:09.753Z,26.71
2022-07-30T21:13:36.933Z,26.72
2022-07-30T21:16:04.406Z,26.67
2022-07-30T21:18:49.704Z,26.63
2022-07-30T21:21:30.484Z,26.70
2022-07-30T21:24:11.864Z,26.59
2022-07-30T21:26:40.421Z,26.61
2022-07-30T21:29:08.096Z,26.62
2022-07-30T21:31:35.005Z,26.65
2022-07-30T21:34:26.466Z,26.59
2022-07-30T21:36:54.315Z,26.51
2022-07-30T21:39:28.774Z,26.44
2022-07-30T21:41:57.286Z,26.37
2022-07-30T21:44:24.306Z,26.37
2022-07-30T21:46:52.529Z,26.42
2022-07-30T21:49:20.403Z,26.47
2022-07-30T21:51:47.101Z,26.41
2022-07-30T21:54:17.107Z,26.33
2022-07-30T21:56:56.357Z,26.34
2022-07-30T21:59:25.102Z,26.33
2022-07-30T22:01:59.678Z,26.39
2022-07-30T22:04:27.303Z,26.42
2022-07-30T22:06:54.527Z,26.39
2022-07-30T22:09:33.142Z,26.33
2022-07-30T22:12:09.745Z,26.35
2022-07-30T22:14:39.566Z,26.32
2022-07-30T22:17:06.378Z,26.32
2022-07-30T22:19:49.983Z,26.44
2022-07-30T22:22:26.203Z,26.33
2022-07-30T22:24:57.227Z,26.35
2022-07-30T22:27:25.350Z,26.33
2022-07-30T22:29:55.662Z,26.30
2022-07-30T22:32:23.818Z,26.25
2022-07-30T22:34:51.525Z,26.28
2022-07-30T22:37:21.519Z,26.32
2022-07-30T22:39:50.935Z,26.34
2022-07-30T22:42:24.587Z,26.28
2022-07-30T22:44:54.771Z,26.31
2022-07-30T22:47:51.550Z,26.32
2022-07-30T22:50:10.807Z,26.31
2022-07-30T22:52:54.971Z,26.23
2022-07-30T22:55:26.125Z,26.26
2022-07-30T22:57:53.696Z,26.24
2022-07-30T23:00:27.999Z,26.17
2022-07-30T23:02:56.527Z,26.17
2022-07-30T23:05:23.810Z,26.20
2022-07-30T23:07:50.925Z,26.10
2022-07-30T23:10:20.343Z,26.21
2022-07-30T23:12:53.686Z,26.20
2022-07-30T23:15:21.501Z,26.22
2022-07-30T23:17:48.298Z,26.31
2022-07-30T23:20:20.174Z,26.30
2022-07-30T23:22:47.326Z,26.23
2022-07-30T23:25:14.493Z,26.18
2022-07-30T23:27:41.762Z,26.17
2022-07-30T23:30:10.860Z,26.17
2022-07-30T23:32:38.087Z,25.96
2022-07-30T23:35:06.389Z,26.01
2022-07-30T23:37:37.882Z,26.04
2022-07-30T23:40:14.726Z,26.01
2022-07-30T23:42:41.452Z,25.87
2022-07-30T23:45:08.442Z,25.85
2022-07-30T23:47:51.168Z,25.80
2022-07-30T23:50:22.101Z,25.82
2022-07-30T23:52:48.823Z,25.82
2022-07-30T23:55:16.067Z,25.79
2022-07-30T23:57:43.568Z,25.76
